ロサンゼルス の空港の天気 - METARとTAF

ロサンゼルス国際空港 ( KLAX / LAX ) - アメリカ カリフォルニア州ロサンゼルス
飛行場実況気象(Metar)
観測時間10/23 03:53 PDT (10/23 10:53 UTC)
風向・風速静穏 0m/s
視程10km以上
天気現象
なし
気温18.9℃
湿度50%
気圧1012.1hPa
METARKLAX 231053Z 00000KT 10SM CLR 19/08 A2990 RMK AO2 SLP121 T01890083
過去の天気等 Google飛行場航空写真 Wunderground天気予報

過去48時間のMETAR

飛行場予報(TAF)
発表時間: 10/23 02:16 PDT (10/23 09:16 UTC)
予報対象時間: 23日2時 PDT ~ 24日5時 PDT
風向・風速不定 2m/s
視程10km以上
なし
23日13時 PDT から
風向・風速西南西 5m/s
視程10km以上
なし
23日21時 PDT から
風向・風速不定 2m/s
視程10km以上
なし
KLAX 230916Z 2309/2412 VRB03KT P6SM SKC
FM232000 25010KT P6SM SKC
FM240400 VRB03KT P6SM SKC